sensor_id;sensor_type;location;lat;lon;timestamp;P1;durP1;ratioP1;P2;durP2;ratioP2
65174;SDS011;51761;42.126;24.752;2023-02-28T00:00:19;27.45;;;8.95;;
65174;SDS011;51761;42.126;24.752;2023-02-28T00:02:46;25.65;;;8.02;;
65174;SDS011;51761;42.126;24.752;2023-02-28T00:05:13;26.17;;;8.38;;
65174;SDS011;51761;42.126;24.752;2023-02-28T00:07:40;30.10;;;8.75;;
65174;SDS011;51761;42.126;24.752;2023-02-28T00:10:09;27.67;;;8.65;;
65174;SDS011;51761;42.126;24.752;2023-02-28T00:12:36;25.67;;;9.07;;
65174;SDS011;51761;42.126;24.752;2023-02-28T00:15:05;20.98;;;9.32;;
65174;SDS011;51761;42.126;24.752;2023-02-28T00:17:32;24.88;;;8.13;;
65174;SDS011;51761;42.126;24.752;2023-02-28T00:19:57;24.20;;;8.73;;
65174;SDS011;51761;42.126;24.752;2023-02-28T00:22:35;30.73;;;8.25;;
65174;SDS011;51761;42.126;24.752;2023-02-28T00:25:01;26.35;;;8.23;;
65174;SDS011;51761;42.126;24.752;2023-02-28T00:27:27;33.17;;;8.70;;
65174;SDS011;51761;42.126;24.752;2023-02-28T00:29:53;25.85;;;8.20;;
65174;SDS011;51761;42.126;24.752;2023-02-28T00:32:19;26.52;;;9.32;;
65174;SDS011;51761;42.126;24.752;2023-02-28T00:34:45;26.75;;;7.85;;
65174;SDS011;51761;42.126;24.752;2023-02-28T00:37:10;21.42;;;7.75;;
65174;SDS011;51761;42.126;24.752;2023-02-28T00:39:40;23.88;;;7.80;;
65174;SDS011;51761;42.126;24.752;2023-02-28T00:42:06;22.02;;;7.75;;
65174;SDS011;51761;42.126;24.752;2023-02-28T00:44:32;25.77;;;9.07;;
65174;SDS011;51761;42.126;24.752;2023-02-28T00:46:58;27.10;;;8.68;;
65174;SDS011;51761;42.126;24.752;2023-02-28T00:49:25;31.90;;;8.32;;
65174;SDS011;51761;42.126;24.752;2023-02-28T00:51:52;37.08;;;8.77;;
65174;SDS011;51761;42.126;24.752;2023-02-28T00:54:18;16.42;;;8.15;;
65174;SDS011;51761;42.126;24.752;2023-02-28T00:56:44;17.15;;;8.00;;
65174;SDS011;51761;42.126;24.752;2023-02-28T00:59:11;26.30;;;8.65;;
65174;SDS011;51761;42.126;24.752;2023-02-28T01:01:37;24.52;;;7.90;;
65174;SDS011;51761;42.126;24.752;2023-02-28T01:04:03;17.92;;;7.50;;
65174;SDS011;51761;42.126;24.752;2023-02-28T01:06:29;26.92;;;9.55;;
65174;SDS011;51761;42.126;24.752;2023-02-28T01:08:55;20.95;;;8.30;;
65174;SDS011;51761;42.126;24.752;2023-02-28T01:11:20;22.35;;;8.63;;
65174;SDS011;51761;42.126;24.752;2023-02-28T01:13:46;23.55;;;7.47;;
65174;SDS011;51761;42.126;24.752;2023-02-28T01:16:12;20.55;;;7.47;;
65174;SDS011;51761;42.126;24.752;2023-02-28T01:18:38;18.13;;;8.55;;
65174;SDS011;51761;42.126;24.752;2023-02-28T01:21:05;23.63;;;8.30;;
65174;SDS011;51761;42.126;24.752;2023-02-28T01:23:31;18.25;;;8.10;;
65174;SDS011;51761;42.126;24.752;2023-02-28T01:26:02;28.05;;;8.27;;
65174;SDS011;51761;42.126;24.752;2023-02-28T01:28:29;28.67;;;8.35;;
65174;SDS011;51761;42.126;24.752;2023-02-28T01:30:54;22.65;;;9.70;;
65174;SDS011;51761;42.126;24.752;2023-02-28T01:33:20;21.02;;;8.43;;
65174;SDS011;51761;42.126;24.752;2023-02-28T01:35:45;23.98;;;8.27;;
65174;SDS011;51761;42.126;24.752;2023-02-28T01:38:11;24.33;;;8.57;;
65174;SDS011;51761;42.126;24.752;2023-02-28T01:40:36;26.10;;;8.20;;
65174;SDS011;51761;42.126;24.752;2023-02-28T01:43:02;23.35;;;8.07;;
65174;SDS011;51761;42.126;24.752;2023-02-28T01:47:58;22.52;;;10.20;;
65174;SDS011;51761;42.126;24.752;2023-02-28T01:50:29;37.25;;;11.75;;
65174;SDS011;51761;42.126;24.752;2023-02-28T01:53:00;36.60;;;10.18;;
65174;SDS011;51761;42.126;24.752;2023-02-28T01:55:29;37.13;;;10.73;;
65174;SDS011;51761;42.126;24.752;2023-02-28T01:57:57;40.00;;;12.25;;
65174;SDS011;51761;42.126;24.752;2023-02-28T02:00:25;26.88;;;9.68;;
65174;SDS011;51761;42.126;24.752;2023-02-28T02:02:53;30.88;;;11.18;;
65174;SDS011;51761;42.126;24.752;2023-02-28T02:05:24;42.22;;;9.85;;
65174;SDS011;51761;42.126;24.752;2023-02-28T02:07:52;32.45;;;12.05;;
65174;SDS011;51761;42.126;24.752;2023-02-28T02:10:29;27.88;;;9.98;;
65174;SDS011;51761;42.126;24.752;2023-02-28T02:15:36;28.65;;;10.07;;
65174;SDS011;51761;42.126;24.752;2023-02-28T02:18:10;32.72;;;10.60;;
65174;SDS011;51761;42.126;24.752;2023-02-28T02:24:07;31.33;;;10.65;;
65174;SDS011;51761;42.126;24.752;2023-02-28T02:37:27;33.15;;;11.00;;
65174;SDS011;51761;42.126;24.752;2023-02-28T02:45:17;25.48;;;10.75;;
65174;SDS011;51761;42.126;24.752;2023-02-28T02:47:48;41.58;;;10.98;;
65174;SDS011;51761;42.126;24.752;2023-02-28T02:50:17;35.00;;;10.73;;
65174;SDS011;51761;42.126;24.752;2023-02-28T02:52:49;24.90;;;10.57;;
65174;SDS011;51761;42.126;24.752;2023-02-28T02:55:19;29.70;;;11.88;;
65174;SDS011;51761;42.126;24.752;2023-02-28T02:57:48;25.98;;;9.80;;
65174;SDS011;51761;42.126;24.752;2023-02-28T03:00:18;27.52;;;10.23;;
65174;SDS011;51761;42.126;24.752;2023-02-28T03:02:48;30.92;;;9.60;;
65174;SDS011;51761;42.126;24.752;2023-02-28T03:05:21;36.72;;;12.98;;
65174;SDS011;51761;42.126;24.752;2023-02-28T03:07:51;33.85;;;11.30;;
65174;SDS011;51761;42.126;24.752;2023-02-28T03:13:03;34.90;;;11.77;;
65174;SDS011;51761;42.126;24.752;2023-02-28T03:26:42;27.13;;;11.98;;
65174;SDS011;51761;42.126;24.752;2023-02-28T03:29:33;33.35;;;11.73;;
65174;SDS011;51761;42.126;24.752;2023-02-28T03:34:46;25.65;;;13.02;;
65174;SDS011;51761;42.126;24.752;2023-02-28T03:37:25;29.77;;;13.52;;
65174;SDS011;51761;42.126;24.752;2023-02-28T03:40:01;30.30;;;13.55;;
65174;SDS011;51761;42.126;24.752;2023-02-28T03:42:33;37.35;;;15.68;;
65174;SDS011;51761;42.126;24.752;2023-02-28T03:45:16;42.10;;;15.30;;
65174;SDS011;51761;42.126;24.752;2023-02-28T03:47:51;43.15;;;14.60;;
65174;SDS011;51761;42.126;24.752;2023-02-28T03:53:17;30.23;;;13.25;;
65174;SDS011;51761;42.126;24.752;2023-02-28T03:55:45;30.42;;;14.13;;
65174;SDS011;51761;42.126;24.752;2023-02-28T04:01:08;32.30;;;14.20;;
65174;SDS011;51761;42.126;24.752;2023-02-28T04:03:38;34.13;;;14.05;;
65174;SDS011;51761;42.126;24.752;2023-02-28T04:06:05;28.88;;;12.60;;
65174;SDS011;51761;42.126;24.752;2023-02-28T04:08:37;34.10;;;13.33;;
65174;SDS011;51761;42.126;24.752;2023-02-28T04:11:04;33.47;;;12.65;;
65174;SDS011;51761;42.126;24.752;2023-02-28T04:13:36;31.50;;;13.37;;
65174;SDS011;51761;42.126;24.752;2023-02-28T04:16:02;28.08;;;12.80;;
65174;SDS011;51761;42.126;24.752;2023-02-28T04:18:39;35.70;;;13.32;;
65174;SDS011;51761;42.126;24.752;2023-02-28T04:21:06;29.60;;;11.85;;
65174;SDS011;51761;42.126;24.752;2023-02-28T04:23:32;26.15;;;12.05;;
65174;SDS011;51761;42.126;24.752;2023-02-28T04:25:58;34.72;;;13.25;;
65174;SDS011;51761;42.126;24.752;2023-02-28T04:28:23;44.10;;;17.52;;
65174;SDS011;51761;42.126;24.752;2023-02-28T04:30:59;36.55;;;15.82;;
65174;SDS011;51761;42.126;24.752;2023-02-28T04:33:26;31.52;;;12.07;;
65174;SDS011;51761;42.126;24.752;2023-02-28T04:36:02;28.50;;;12.00;;
65174;SDS011;51761;42.126;24.752;2023-02-28T04:38:30;24.58;;;12.05;;
65174;SDS011;51761;42.126;24.752;2023-02-28T04:40:58;30.08;;;12.27;;
65174;SDS011;51761;42.126;24.752;2023-02-28T04:43:25;34.05;;;12.50;;
65174;SDS011;51761;42.126;24.752;2023-02-28T04:45:52;31.00;;;12.55;;
65174;SDS011;51761;42.126;24.752;2023-02-28T04:48:17;28.92;;;12.60;;
65174;SDS011;51761;42.126;24.752;2023-02-28T04:50:43;30.83;;;12.55;;
65174;SDS011;51761;42.126;24.752;2023-02-28T04:53:08;27.42;;;12.05;;
65174;SDS011;51761;42.126;24.752;2023-02-28T04:55:34;30.02;;;12.35;;
65174;SDS011;51761;42.126;24.752;2023-02-28T04:57:59;29.25;;;12.25;;
65174;SDS011;51761;42.126;24.752;2023-02-28T05:00:25;27.20;;;12.48;;
65174;SDS011;51761;42.126;24.752;2023-02-28T05:02:50;30.63;;;11.80;;
65174;SDS011;51761;42.126;24.752;2023-02-28T05:05:16;33.33;;;13.48;;
65174;SDS011;51761;42.126;24.752;2023-02-28T05:07:43;21.70;;;10.95;;
65174;SDS011;51761;42.126;24.752;2023-02-28T05:10:10;23.27;;;11.70;;
65174;SDS011;51761;42.126;24.752;2023-02-28T05:12:36;29.20;;;12.48;;
65174;SDS011;51761;42.126;24.752;2023-02-28T05:15:01;22.02;;;12.55;;
65174;SDS011;51761;42.126;24.752;2023-02-28T05:17:27;23.40;;;11.15;;
65174;SDS011;51761;42.126;24.752;2023-02-28T05:19:53;26.17;;;11.70;;
65174;SDS011;51761;42.126;24.752;2023-02-28T05:22:18;23.88;;;12.23;;
65174;SDS011;51761;42.126;24.752;2023-02-28T05:24:44;23.90;;;12.48;;
65174;SDS011;51761;42.126;24.752;2023-02-28T05:27:10;53.45;;;17.42;;
65174;SDS011;51761;42.126;24.752;2023-02-28T05:29:35;29.08;;;12.35;;
65174;SDS011;51761;42.126;24.752;2023-02-28T05:32:07;25.08;;;12.98;;
65174;SDS011;51761;42.126;24.752;2023-02-28T05:34:34;28.50;;;12.88;;
65174;SDS011;51761;42.126;24.752;2023-02-28T05:37:01;24.85;;;11.88;;
65174;SDS011;51761;42.126;24.752;2023-02-28T05:39:27;31.73;;;12.88;;
65174;SDS011;51761;42.126;24.752;2023-02-28T05:41:52;26.23;;;12.07;;
65174;SDS011;51761;42.126;24.752;2023-02-28T05:44:17;30.60;;;12.43;;
65174;SDS011;51761;42.126;24.752;2023-02-28T05:46:43;27.05;;;13.10;;
65174;SDS011;51761;42.126;24.752;2023-02-28T05:49:08;35.05;;;13.88;;
65174;SDS011;51761;42.126;24.752;2023-02-28T05:51:34;33.33;;;14.20;;
65174;SDS011;51761;42.126;24.752;2023-02-28T05:54:01;41.15;;;18.92;;
65174;SDS011;51761;42.126;24.752;2023-02-28T05:56:27;41.83;;;18.67;;
65174;SDS011;51761;42.126;24.752;2023-02-28T05:58:53;29.63;;;15.20;;
65174;SDS011;51761;42.126;24.752;2023-02-28T06:01:37;36.95;;;16.35;;
65174;SDS011;51761;42.126;24.752;2023-02-28T06:04:06;30.25;;;13.40;;
65174;SDS011;51761;42.126;24.752;2023-02-28T06:06:34;27.40;;;12.68;;
65174;SDS011;51761;42.126;24.752;2023-02-28T06:09:01;33.67;;;14.68;;
65174;SDS011;51761;42.126;24.752;2023-02-28T06:11:26;34.67;;;15.10;;
65174;SDS011;51761;42.126;24.752;2023-02-28T06:13:59;36.85;;;14.18;;
65174;SDS011;51761;42.126;24.752;2023-02-28T06:16:28;30.90;;;13.97;;
65174;SDS011;51761;42.126;24.752;2023-02-28T06:18:56;32.47;;;14.20;;
65174;SDS011;51761;42.126;24.752;2023-02-28T06:21:23;34.17;;;14.80;;
65174;SDS011;51761;42.126;24.752;2023-02-28T06:23:49;31.17;;;14.25;;
65174;SDS011;51761;42.126;24.752;2023-02-28T06:26:15;31.10;;;15.02;;
65174;SDS011;51761;42.126;24.752;2023-02-28T06:28:40;32.60;;;12.85;;
65174;SDS011;51761;42.126;24.752;2023-02-28T06:31:07;34.10;;;14.88;;
65174;SDS011;51761;42.126;24.752;2023-02-28T06:33:37;30.00;;;13.20;;
65174;SDS011;51761;42.126;24.752;2023-02-28T06:36:04;34.97;;;14.32;;
65174;SDS011;51761;42.126;24.752;2023-02-28T06:38:31;30.25;;;12.90;;
65174;SDS011;51761;42.126;24.752;2023-02-28T06:40:57;33.08;;;13.35;;
65174;SDS011;51761;42.126;24.752;2023-02-28T06:43:24;34.10;;;14.75;;
65174;SDS011;51761;42.126;24.752;2023-02-28T06:45:50;28.58;;;13.25;;
65174;SDS011;51761;42.126;24.752;2023-02-28T06:48:16;30.08;;;13.68;;
65174;SDS011;51761;42.126;24.752;2023-02-28T06:50:41;34.95;;;13.10;;
65174;SDS011;51761;42.126;24.752;2023-02-28T06:53:07;29.73;;;13.43;;
65174;SDS011;51761;42.126;24.752;2023-02-28T06:55:32;30.58;;;13.73;;
65174;SDS011;51761;42.126;24.752;2023-02-28T06:57:58;35.35;;;13.75;;
65174;SDS011;51761;42.126;24.752;2023-02-28T07:00:24;39.38;;;15.10;;
65174;SDS011;51761;42.126;24.752;2023-02-28T07:02:50;30.88;;;16.35;;
65174;SDS011;51761;42.126;24.752;2023-02-28T07:05:15;37.47;;;16.08;;
65174;SDS011;51761;42.126;24.752;2023-02-28T07:07:41;42.35;;;16.77;;
65174;SDS011;51761;42.126;24.752;2023-02-28T07:10:12;44.28;;;17.40;;
65174;SDS011;51761;42.126;24.752;2023-02-28T07:12:39;32.55;;;15.57;;
65174;SDS011;51761;42.126;24.752;2023-02-28T07:15:05;37.45;;;15.82;;
65174;SDS011;51761;42.126;24.752;2023-02-28T07:17:31;34.50;;;15.15;;
65174;SDS011;51761;42.126;24.752;2023-02-28T07:19:56;30.45;;;14.90;;
65174;SDS011;51761;42.126;24.752;2023-02-28T07:22:22;37.60;;;16.48;;
65174;SDS011;51761;42.126;24.752;2023-02-28T07:24:47;28.23;;;15.13;;
65174;SDS011;51761;42.126;24.752;2023-02-28T07:27:13;35.58;;;15.68;;
65174;SDS011;51761;42.126;24.752;2023-02-28T07:29:48;30.45;;;15.23;;
65174;SDS011;51761;42.126;24.752;2023-02-28T07:32:18;35.25;;;17.88;;
65174;SDS011;51761;42.126;24.752;2023-02-28T07:34:44;37.58;;;16.40;;
65174;SDS011;51761;42.126;24.752;2023-02-28T07:37:10;43.30;;;15.95;;
65174;SDS011;51761;42.126;24.752;2023-02-28T07:39:35;45.28;;;18.77;;
65174;SDS011;51761;42.126;24.752;2023-02-28T07:42:04;42.05;;;18.63;;
65174;SDS011;51761;42.126;24.752;2023-02-28T07:44:31;43.05;;;19.85;;
65174;SDS011;51761;42.126;24.752;2023-02-28T07:46:56;60.90;;;21.33;;
65174;SDS011;51761;42.126;24.752;2023-02-28T07:49:23;52.45;;;21.33;;
65174;SDS011;51761;42.126;24.752;2023-02-28T07:51:48;52.42;;;19.55;;
65174;SDS011;51761;42.126;24.752;2023-02-28T07:54:14;53.58;;;21.65;;
65174;SDS011;51761;42.126;24.752;2023-02-28T07:56:39;39.83;;;18.92;;
65174;SDS011;51761;42.126;24.752;2023-02-28T07:59:05;49.85;;;18.50;;
65174;SDS011;51761;42.126;24.752;2023-02-28T08:01:30;47.78;;;17.70;;
65174;SDS011;51761;42.126;24.752;2023-02-28T08:03:56;55.95;;;19.70;;
65174;SDS011;51761;42.126;24.752;2023-02-28T08:06:23;42.25;;;18.60;;
65174;SDS011;51761;42.126;24.752;2023-02-28T08:08:49;44.95;;;17.88;;
65174;SDS011;51761;42.126;24.752;2023-02-28T08:11:15;51.00;;;18.08;;
65174;SDS011;51761;42.126;24.752;2023-02-28T08:13:42;45.20;;;18.98;;
65174;SDS011;51761;42.126;24.752;2023-02-28T08:16:08;43.65;;;17.30;;
65174;SDS011;51761;42.126;24.752;2023-02-28T08:18:35;44.65;;;18.50;;
65174;SDS011;51761;42.126;24.752;2023-02-28T08:21:05;34.55;;;17.58;;
65174;SDS011;51761;42.126;24.752;2023-02-28T08:23:34;40.90;;;17.75;;
65174;SDS011;51761;42.126;24.752;2023-02-28T08:26:00;42.97;;;17.80;;
65174;SDS011;51761;42.126;24.752;2023-02-28T08:28:25;30.85;;;15.73;;
65174;SDS011;51761;42.126;24.752;2023-02-28T08:30:51;35.72;;;16.67;;
65174;SDS011;51761;42.126;24.752;2023-02-28T08:33:16;45.80;;;17.17;;
65174;SDS011;51761;42.126;24.752;2023-02-28T08:35:42;34.13;;;16.65;;
65174;SDS011;51761;42.126;24.752;2023-02-28T08:38:07;45.60;;;17.58;;
65174;SDS011;51761;42.126;24.752;2023-02-28T08:40:33;37.10;;;18.48;;
65174;SDS011;51761;42.126;24.752;2023-02-28T08:42:58;34.60;;;18.20;;
65174;SDS011;51761;42.126;24.752;2023-02-28T08:45:24;46.42;;;19.58;;
65174;SDS011;51761;42.126;24.752;2023-02-28T08:47:50;51.38;;;21.77;;
65174;SDS011;51761;42.126;24.752;2023-02-28T08:50:17;51.42;;;22.30;;
65174;SDS011;51761;42.126;24.752;2023-02-28T08:52:43;39.22;;;18.80;;
65174;SDS011;51761;42.126;24.752;2023-02-28T08:55:09;50.95;;;20.85;;
65174;SDS011;51761;42.126;24.752;2023-02-28T08:57:35;45.10;;;20.88;;
65174;SDS011;51761;42.126;24.752;2023-02-28T09:00:00;78.80;;;24.63;;
65174;SDS011;51761;42.126;24.752;2023-02-28T09:02:30;48.80;;;21.35;;
65174;SDS011;51761;42.126;24.752;2023-02-28T09:04:56;56.10;;;21.38;;
65174;SDS011;51761;42.126;24.752;2023-02-28T09:07:23;42.65;;;19.95;;
65174;SDS011;51761;42.126;24.752;2023-02-28T09:09:49;41.15;;;18.67;;
65174;SDS011;51761;42.126;24.752;2023-02-28T09:12:22;35.28;;;17.27;;
65174;SDS011;51761;42.126;24.752;2023-02-28T09:14:52;34.63;;;17.33;;
65174;SDS011;51761;42.126;24.752;2023-02-28T09:17:18;43.75;;;20.92;;
65174;SDS011;51761;42.126;24.752;2023-02-28T09:19:44;46.42;;;20.98;;
65174;SDS011;51761;42.126;24.752;2023-02-28T09:22:12;44.35;;;22.25;;
65174;SDS011;51761;42.126;24.752;2023-02-28T09:24:37;45.05;;;21.50;;
65174;SDS011;51761;42.126;24.752;2023-02-28T09:27:03;48.22;;;23.17;;
65174;SDS011;51761;42.126;24.752;2023-02-28T09:29:30;42.72;;;22.77;;
65174;SDS011;51761;42.126;24.752;2023-02-28T09:31:57;43.40;;;20.98;;
65174;SDS011;51761;42.126;24.752;2023-02-28T09:34:24;41.72;;;20.95;;
65174;SDS011;51761;42.126;24.752;2023-02-28T09:36:50;49.15;;;21.40;;
65174;SDS011;51761;42.126;24.752;2023-02-28T09:39:20;50.03;;;21.67;;
65174;SDS011;51761;42.126;24.752;2023-02-28T09:41:47;45.13;;;21.88;;
65174;SDS011;51761;42.126;24.752;2023-02-28T09:44:26;41.45;;;19.95;;
65174;SDS011;51761;42.126;24.752;2023-02-28T09:47:01;43.67;;;21.27;;
65174;SDS011;51761;42.126;24.752;2023-02-28T09:49:34;45.13;;;23.60;;
65174;SDS011;51761;42.126;24.752;2023-02-28T09:52:07;44.30;;;20.70;;
65174;SDS011;51761;42.126;24.752;2023-02-28T09:54:37;49.08;;;21.17;;
65174;SDS011;51761;42.126;24.752;2023-02-28T09:57:08;47.90;;;22.63;;
65174;SDS011;51761;42.126;24.752;2023-02-28T09:59:39;44.92;;;21.92;;
65174;SDS011;51761;42.126;24.752;2023-02-28T10:07:21;42.30;;;19.10;;
65174;SDS011;51761;42.126;24.752;2023-02-28T10:10:28;43.17;;;20.15;;
65174;SDS011;51761;42.126;24.752;2023-02-28T10:12:55;38.47;;;20.23;;
65174;SDS011;51761;42.126;24.752;2023-02-28T10:15:25;41.97;;;19.95;;
65174;SDS011;51761;42.126;24.752;2023-02-28T10:17:56;42.65;;;19.75;;
65174;SDS011;51761;42.126;24.752;2023-02-28T10:20:29;40.03;;;20.48;;
65174;SDS011;51761;42.126;24.752;2023-02-28T10:25:33;50.58;;;21.90;;
65174;SDS011;51761;42.126;24.752;2023-02-28T10:28:01;41.08;;;21.63;;
65174;SDS011;51761;42.126;24.752;2023-02-28T10:30:35;46.95;;;22.90;;
65174;SDS011;51761;42.126;24.752;2023-02-28T10:33:03;43.00;;;20.83;;
65174;SDS011;51761;42.126;24.752;2023-02-28T10:35:29;40.08;;;20.83;;
65174;SDS011;51761;42.126;24.752;2023-02-28T10:37:58;60.10;;;23.30;;
65174;SDS011;51761;42.126;24.752;2023-02-28T10:40:31;55.03;;;25.00;;
65174;SDS011;51761;42.126;24.752;2023-02-28T10:43:01;49.30;;;23.30;;
65174;SDS011;51761;42.126;24.752;2023-02-28T10:45:30;52.97;;;24.02;;
65174;SDS011;51761;42.126;24.752;2023-02-28T10:58:42;44.63;;;22.67;;
65174;SDS011;51761;42.126;24.752;2023-02-28T11:07:39;55.63;;;24.55;;
65174;SDS011;51761;42.126;24.752;2023-02-28T11:09:51;50.03;;;23.33;;
65174;SDS011;51761;42.126;24.752;2023-02-28T11:12:38;50.90;;;24.08;;
65174;SDS011;51761;42.126;24.752;2023-02-28T11:15:49;51.63;;;25.92;;
65174;SDS011;51761;42.126;24.752;2023-02-28T11:17:58;55.00;;;23.50;;
65174;SDS011;51761;42.126;24.752;2023-02-28T11:20:28;49.47;;;25.63;;
65174;SDS011;51761;42.126;24.752;2023-02-28T11:22:57;53.03;;;23.65;;
65174;SDS011;51761;42.126;24.752;2023-02-28T11:27:56;50.55;;;25.20;;
65174;SDS011;51761;42.126;24.752;2023-02-28T11:35:51;55.20;;;26.35;;
65174;SDS011;51761;42.126;24.752;2023-02-28T11:38:20;57.75;;;25.42;;
65174;SDS011;51761;42.126;24.752;2023-02-28T11:41:06;53.58;;;26.60;;
65174;SDS011;51761;42.126;24.752;2023-02-28T11:46:27;50.28;;;26.50;;
65174;SDS011;51761;42.126;24.752;2023-02-28T11:52:36;54.20;;;27.30;;
65174;SDS011;51761;42.126;24.752;2023-02-28T12:06:42;68.10;;;31.20;;
65174;SDS011;51761;42.126;24.752;2023-02-28T12:12:10;70.45;;;34.22;;
65174;SDS011;51761;42.126;24.752;2023-02-28T12:20:34;60.47;;;23.98;;
65174;SDS011;51761;42.126;24.752;2023-02-28T12:28:41;73.30;;;34.10;;
65174;SDS011;51761;42.126;24.752;2023-02-28T12:31:18;70.82;;;34.65;;
65174;SDS011;51761;42.126;24.752;2023-02-28T12:33:49;89.70;;;37.65;;
65174;SDS011;51761;42.126;24.752;2023-02-28T12:36:18;66.35;;;34.33;;
65174;SDS011;51761;42.126;24.752;2023-02-28T12:46:48;84.28;;;37.78;;
65174;SDS011;51761;42.126;24.752;2023-02-28T12:49:28;83.53;;;35.53;;
65174;SDS011;51761;42.126;24.752;2023-02-28T12:52:04;77.65;;;35.58;;
65174;SDS011;51761;42.126;24.752;2023-02-28T12:54:43;67.25;;;33.47;;
65174;SDS011;51761;42.126;24.752;2023-02-28T12:57:22;79.45;;;36.78;;
65174;SDS011;51761;42.126;24.752;2023-02-28T13:00:03;77.50;;;31.90;;
65174;SDS011;51761;42.126;24.752;2023-02-28T13:05:32;66.65;;;32.55;;
65174;SDS011;51761;42.126;24.752;2023-02-28T13:11:28;70.53;;;30.73;;
65174;SDS011;51761;42.126;24.752;2023-02-28T13:13:58;72.32;;;31.20;;
65174;SDS011;51761;42.126;24.752;2023-02-28T13:16:58;65.88;;;32.97;;
65174;SDS011;51761;42.126;24.752;2023-02-28T13:19:28;85.32;;;33.20;;
65174;SDS011;51761;42.126;24.752;2023-02-28T13:21:56;64.63;;;31.88;;
65174;SDS011;51761;42.126;24.752;2023-02-28T13:29:40;76.95;;;34.20;;
65174;SDS011;51761;42.126;24.752;2023-02-28T13:34:38;74.25;;;34.97;;
65174;SDS011;51761;42.126;24.752;2023-02-28T13:40:48;77.45;;;35.63;;
65174;SDS011;51761;42.126;24.752;2023-02-28T13:42:53;86.75;;;34.15;;
65174;SDS011;51761;42.126;24.752;2023-02-28T13:45:20;80.72;;;35.67;;
65174;SDS011;51761;42.126;24.752;2023-02-28T14:04:02;78.85;;;33.65;;
65174;SDS011;51761;42.126;24.752;2023-02-28T14:07:03;79.78;;;34.22;;
65174;SDS011;51761;42.126;24.752;2023-02-28T14:09:39;73.88;;;32.72;;
65174;SDS011;51761;42.126;24.752;2023-02-28T14:18:05;70.22;;;31.98;;
65174;SDS011;51761;42.126;24.752;2023-02-28T14:20:47;69.97;;;28.70;;
65174;SDS011;51761;42.126;24.752;2023-02-28T14:31:25;57.10;;;27.92;;
65174;SDS011;51761;42.126;24.752;2023-02-28T14:36:42;59.22;;;25.33;;
65174;SDS011;51761;42.126;24.752;2023-02-28T14:39:15;53.80;;;26.42;;
65174;SDS011;51761;42.126;24.752;2023-02-28T14:41:44;52.25;;;25.67;;
65174;SDS011;51761;42.126;24.752;2023-02-28T14:46:41;52.85;;;25.17;;
65174;SDS011;51761;42.126;24.752;2023-02-28T14:52:02;53.53;;;23.40;;
65174;SDS011;51761;42.126;24.752;2023-02-28T14:54:34;52.88;;;25.83;;
65174;SDS011;51761;42.126;24.752;2023-02-28T14:57:00;54.55;;;25.88;;
65174;SDS011;51761;42.126;24.752;2023-02-28T14:59:28;53.15;;;23.95;;
65174;SDS011;51761;42.126;24.752;2023-02-28T15:04:41;48.47;;;24.85;;
65174;SDS011;51761;42.126;24.752;2023-02-28T15:07:10;53.50;;;23.88;;
65174;SDS011;51761;42.126;24.752;2023-02-28T15:09:39;51.45;;;26.13;;
65174;SDS011;51761;42.126;24.752;2023-02-28T15:12:05;48.72;;;24.50;;
65174;SDS011;51761;42.126;24.752;2023-02-28T15:14:31;56.83;;;26.48;;
65174;SDS011;51761;42.126;24.752;2023-02-28T15:16:58;58.75;;;26.48;;
65174;SDS011;51761;42.126;24.752;2023-02-28T15:19:31;58.05;;;26.02;;
65174;SDS011;51761;42.126;24.752;2023-02-28T15:22:04;53.13;;;25.95;;
65174;SDS011;51761;42.126;24.752;2023-02-28T15:24:39;51.20;;;24.65;;
65174;SDS011;51761;42.126;24.752;2023-02-28T15:27:20;56.70;;;25.45;;
65174;SDS011;51761;42.126;24.752;2023-02-28T15:32:29;54.42;;;25.08;;
65174;SDS011;51761;42.126;24.752;2023-02-28T15:34:58;50.10;;;23.30;;
65174;SDS011;51761;42.126;24.752;2023-02-28T15:37:48;50.30;;;22.80;;
65174;SDS011;51761;42.126;24.752;2023-02-28T15:40:26;52.88;;;22.02;;
65174;SDS011;51761;42.126;24.752;2023-02-28T15:43:05;48.83;;;23.65;;
65174;SDS011;51761;42.126;24.752;2023-02-28T15:45:33;42.90;;;21.70;;
65174;SDS011;51761;42.126;24.752;2023-02-28T15:48:03;43.00;;;21.55;;
65174;SDS011;51761;42.126;24.752;2023-02-28T15:50:52;51.03;;;23.88;;
65174;SDS011;51761;42.126;24.752;2023-02-28T15:53:30;52.58;;;23.48;;
65174;SDS011;51761;42.126;24.752;2023-02-28T15:56:02;53.88;;;25.83;;
65174;SDS011;51761;42.126;24.752;2023-02-28T15:58:30;56.17;;;24.90;;
65174;SDS011;51761;42.126;24.752;2023-02-28T16:01:06;55.70;;;22.92;;
65174;SDS011;51761;42.126;24.752;2023-02-28T16:03:45;60.40;;;25.02;;
65174;SDS011;51761;42.126;24.752;2023-02-28T16:08:41;58.75;;;24.17;;
65174;SDS011;51761;42.126;24.752;2023-02-28T16:11:10;51.72;;;23.30;;
65174;SDS011;51761;42.126;24.752;2023-02-28T16:13:36;57.55;;;25.90;;
65174;SDS011;51761;42.126;24.752;2023-02-28T16:16:02;53.47;;;23.52;;
65174;SDS011;51761;42.126;24.752;2023-02-28T16:18:28;60.50;;;25.33;;
65174;SDS011;51761;42.126;24.752;2023-02-28T16:20:53;47.65;;;22.35;;
65174;SDS011;51761;42.126;24.752;2023-02-28T16:23:19;53.80;;;23.55;;
65174;SDS011;51761;42.126;24.752;2023-02-28T16:25:44;46.33;;;19.17;;
65174;SDS011;51761;42.126;24.752;2023-02-28T16:33:13;46.25;;;19.42;;
65174;SDS011;51761;42.126;24.752;2023-02-28T16:35:38;51.45;;;22.70;;
65174;SDS011;51761;42.126;24.752;2023-02-28T16:38:04;55.00;;;22.05;;
65174;SDS011;51761;42.126;24.752;2023-02-28T16:40:29;45.85;;;21.90;;
65174;SDS011;51761;42.126;24.752;2023-02-28T16:42:59;46.95;;;21.17;;
65174;SDS011;51761;42.126;24.752;2023-02-28T16:45:26;48.45;;;20.85;;
65174;SDS011;51761;42.126;24.752;2023-02-28T16:47:53;47.70;;;20.55;;
65174;SDS011;51761;42.126;24.752;2023-02-28T16:50:21;42.35;;;21.05;;
65174;SDS011;51761;42.126;24.752;2023-02-28T16:52:48;48.00;;;20.52;;
65174;SDS011;51761;42.126;24.752;2023-02-28T16:55:15;43.03;;;19.98;;
65174;SDS011;51761;42.126;24.752;2023-02-28T16:57:40;46.15;;;20.45;;
65174;SDS011;51761;42.126;24.752;2023-02-28T17:00:07;47.47;;;19.40;;
65174;SDS011;51761;42.126;24.752;2023-02-28T17:02:36;45.25;;;20.33;;
65174;SDS011;51761;42.126;24.752;2023-02-28T17:05:01;47.25;;;19.75;;
65174;SDS011;51761;42.126;24.752;2023-02-28T17:07:27;41.13;;;18.80;;
65174;SDS011;51761;42.126;24.752;2023-02-28T17:09:53;38.78;;;17.45;;
65174;SDS011;51761;42.126;24.752;2023-02-28T17:12:18;38.13;;;17.45;;
65174;SDS011;51761;42.126;24.752;2023-02-28T17:14:44;38.60;;;19.00;;
65174;SDS011;51761;42.126;24.752;2023-02-28T17:17:17;39.00;;;19.70;;
65174;SDS011;51761;42.126;24.752;2023-02-28T17:19:45;45.25;;;21.27;;
65174;SDS011;51761;42.126;24.752;2023-02-28T17:22:10;48.90;;;21.23;;
65174;SDS011;51761;42.126;24.752;2023-02-28T17:24:36;42.58;;;21.30;;
65174;SDS011;51761;42.126;24.752;2023-02-28T17:27:02;47.38;;;21.67;;
65174;SDS011;51761;42.126;24.752;2023-02-28T17:29:28;47.25;;;24.08;;